createdAt,value
2018-12-15T00:00:51.260Z,26.63
2018-12-15T00:02:53.820Z,29.43
2018-12-15T00:04:56.394Z,26.70
2018-12-15T00:06:59.088Z,26.80
2018-12-15T00:09:01.644Z,26.73
2018-12-15T00:11:04.308Z,25.37
2018-12-15T00:13:06.973Z,28.33
2018-12-15T00:15:09.828Z,25.10
2018-12-15T00:17:12.577Z,29.03
2018-12-15T00:19:15.207Z,26.33
2018-12-15T00:21:17.800Z,28.10
2018-12-15T00:23:20.390Z,27.43
2018-12-15T00:25:23.010Z,28.73
2018-12-15T00:27:25.654Z,27.83
2018-12-15T00:29:28.221Z,27.80
2018-12-15T00:31:30.743Z,29.50
2018-12-15T00:33:33.333Z,25.97
2018-12-15T00:35:35.872Z,29.50
2018-12-15T00:37:38.556Z,29.23
2018-12-15T00:39:41.103Z,29.00
2018-12-15T00:41:43.631Z,30.97
2018-12-15T00:43:46.189Z,26.13
2018-12-15T00:45:48.758Z,29.37
2018-12-15T00:47:51.471Z,30.67
2018-12-15T00:49:54.050Z,29.90
2018-12-15T00:51:56.622Z,27.27
2018-12-15T00:53:59.269Z,28.53
2018-12-15T00:56:01.791Z,32.00
2018-12-15T00:58:04.341Z,30.07
2018-12-15T01:00:07.103Z,31.37
2018-12-15T01:02:09.661Z,27.30
2018-12-15T01:04:12.183Z,30.07
2018-12-15T01:06:14.758Z,28.77
2018-12-15T01:08:17.467Z,28.10
2018-12-15T01:10:20.294Z,29.53
2018-12-15T01:12:22.892Z,29.77
2018-12-15T01:14:25.465Z,27.23
2018-12-15T01:16:28.086Z,30.50
2018-12-15T01:18:30.621Z,29.37
2018-12-15T01:20:33.228Z,30.00
2018-12-15T01:22:35.787Z,30.57
2018-12-15T01:24:38.367Z,31.03
2018-12-15T01:26:40.961Z,27.80
2018-12-15T01:28:43.479Z,30.70
2018-12-15T01:30:46.129Z,26.77
2018-12-15T01:32:48.635Z,29.97
2018-12-15T01:34:51.209Z,30.77
2018-12-15T01:36:53.805Z,33.37
2018-12-15T01:38:56.402Z,28.37
2018-12-15T01:40:59.068Z,27.87
2018-12-15T01:43:01.662Z,29.83
2018-12-15T01:45:05.376Z,31.23
2018-12-15T01:47:07.923Z,32.13
2018-12-15T01:49:10.454Z,29.97
2018-12-15T01:51:12.990Z,31.93
2018-12-15T01:53:15.578Z,29.10
2018-12-15T01:55:18.120Z,30.73
2018-12-15T01:57:20.833Z,29.47
2018-12-15T01:59:23.366Z,30.23
2018-12-15T02:01:25.898Z,30.63
2018-12-15T02:03:28.421Z,30.13
2018-12-15T02:05:31.003Z,30.37
2018-12-15T02:07:33.543Z,29.30
2018-12-15T02:09:36.088Z,32.07
2018-12-15T02:11:38.628Z,32.00
2018-12-15T02:13:41.251Z,31.17
2018-12-15T02:15:43.946Z,29.93
2018-12-15T02:17:46.485Z,30.70
2018-12-15T02:19:49.129Z,29.10
2018-12-15T02:21:51.716Z,29.10
2018-12-15T02:23:54.262Z,30.67
2018-12-15T02:25:56.834Z,29.97
2018-12-15T02:27:59.453Z,27.67
2018-12-15T02:30:02.137Z,30.90
2018-12-15T02:32:04.692Z,31.87
2018-12-15T02:34:07.239Z,31.80
2018-12-15T02:36:09.791Z,30.77
2018-12-15T02:38:12.311Z,30.33
2018-12-15T02:40:14.894Z,34.07
2018-12-15T02:42:17.497Z,34.57
2018-12-15T02:44:20.046Z,28.97
2018-12-15T02:46:22.595Z,30.67
2018-12-15T02:48:25.114Z,33.87
2018-12-15T02:50:27.651Z,29.60
2018-12-15T02:52:30.177Z,29.70
2018-12-15T02:54:32.765Z,29.60
2018-12-15T02:56:35.382Z,32.10
2018-12-15T02:58:37.988Z,34.03
2018-12-15T03:00:40.718Z,32.07
2018-12-15T03:02:43.348Z,31.80
2018-12-15T03:04:45.975Z,31.17
2018-12-15T03:06:48.611Z,34.17
2018-12-15T03:08:51.278Z,32.50
2018-12-15T03:10:53.793Z,33.50
2018-12-15T03:12:56.370Z,34.93
2018-12-15T03:14:58.987Z,32.87
2018-12-15T03:17:04.874Z,34.60
2018-12-15T03:19:11.614Z,31.07
2018-12-15T03:21:14.177Z,32.33
2018-12-15T03:23:16.988Z,33.90
2018-12-15T03:25:19.662Z,33.37
2018-12-15T03:27:22.306Z,33.27
2018-12-15T03:29:24.881Z,30.40
2018-12-15T03:31:27.431Z,32.17
2018-12-15T03:33:30.126Z,31.07
2018-12-15T03:35:32.658Z,33.77
2018-12-15T03:37:35.176Z,35.67
2018-12-15T03:39:37.769Z,33.90
2018-12-15T03:41:40.473Z,36.23
2018-12-15T03:43:43.007Z,36.40
2018-12-15T03:45:45.692Z,33.83
2018-12-15T03:47:48.310Z,31.17
2018-12-15T03:49:50.885Z,34.43
2018-12-15T03:51:53.414Z,34.17
2018-12-15T03:53:55.941Z,34.27
2018-12-15T03:55:58.554Z,36.23
2018-12-15T03:58:01.188Z,32.63
2018-12-15T04:00:04.308Z,34.73
2018-12-15T04:02:07.430Z,35.47
2018-12-15T04:04:09.952Z,32.87
2018-12-15T04:06:12.525Z,34.33
2018-12-15T04:08:15.070Z,34.60
2018-12-15T04:10:17.682Z,34.70
2018-12-15T04:12:20.289Z,35.70
2018-12-15T04:14:22.966Z,34.27
2018-12-15T04:16:25.680Z,36.57
2018-12-15T04:18:28.191Z,34.80
2018-12-15T04:20:30.805Z,36.43
2018-12-15T04:22:33.392Z,34.30
2018-12-15T04:24:35.977Z,34.47
2018-12-15T04:26:38.574Z,31.83
2018-12-15T04:28:41.114Z,35.27
2018-12-15T04:30:43.926Z,35.67
2018-12-15T04:32:46.501Z,36.73
2018-12-15T04:34:49.171Z,36.23
2018-12-15T04:36:52.071Z,37.23
2018-12-15T04:38:54.591Z,34.73
2018-12-15T04:40:57.181Z,34.23
2018-12-15T04:42:59.705Z,35.60
2018-12-15T04:45:02.218Z,38.57
2018-12-15T04:47:04.823Z,34.33
2018-12-15T04:49:07.375Z,35.87
2018-12-15T04:51:09.924Z,35.53
2018-12-15T04:53:12.551Z,37.10
2018-12-15T04:55:15.428Z,33.43
2018-12-15T04:57:18.062Z,36.50
2018-12-15T04:59:20.602Z,35.20
2018-12-15T05:01:23.200Z,37.13
2018-12-15T05:03:25.722Z,37.57
2018-12-15T05:05:28.258Z,36.30
2018-12-15T05:07:30.849Z,36.67
2018-12-15T05:09:33.470Z,38.27
2018-12-15T05:11:36.060Z,38.70
2018-12-15T05:13:38.618Z,36.13
2018-12-15T05:15:41.164Z,35.43
2018-12-15T05:17:43.737Z,33.17
2018-12-15T05:19:46.377Z,40.00
2018-12-15T05:21:48.886Z,34.43
2018-12-15T05:23:51.586Z,34.93
2018-12-15T05:25:54.283Z,38.00
2018-12-15T05:27:56.788Z,36.37
2018-12-15T05:29:59.339Z,35.13
2018-12-15T05:32:01.974Z,34.77
2018-12-15T05:34:04.584Z,39.40
2018-12-15T05:36:07.188Z,36.00
2018-12-15T05:38:09.701Z,37.63
2018-12-15T05:40:12.297Z,34.13
2018-12-15T05:42:14.814Z,41.87
2018-12-15T05:44:17.395Z,33.20
2018-12-15T05:46:19.906Z,37.07
2018-12-15T05:48:25.295Z,36.03
2018-12-15T05:50:27.143Z,39.67
2018-12-15T05:52:29.658Z,38.73
2018-12-15T05:54:32.257Z,34.40
2018-12-15T05:56:34.722Z,38.07
2018-12-15T05:58:37.252Z,64.23
2018-12-15T06:00:39.862Z,46.03
2018-12-15T06:02:42.573Z,71.10
2018-12-15T06:04:45.134Z,45.13
2018-12-15T06:06:47.655Z,41.83
2018-12-15T06:08:50.311Z,39.80
2018-12-15T06:10:52.968Z,39.40
2018-12-15T06:12:55.514Z,40.23
2018-12-15T06:14:58.257Z,35.80
2018-12-15T06:17:00.842Z,40.67
2018-12-15T06:19:03.434Z,41.23
2018-12-15T06:21:06.169Z,38.47
2018-12-15T06:23:08.832Z,39.87
2018-12-15T06:25:11.360Z,36.27
2018-12-15T06:27:14.165Z,31.67
2018-12-15T06:29:16.672Z,32.40
2018-12-15T06:31:19.197Z,33.23
2018-12-15T06:33:21.756Z,34.50
2018-12-15T06:35:24.415Z,37.63
2018-12-15T06:37:27.041Z,37.30
2018-12-15T06:39:29.587Z,34.70
2018-12-15T06:41:32.126Z,34.50
2018-12-15T06:43:34.935Z,37.67
2018-12-15T06:45:37.578Z,36.00
2018-12-15T06:47:40.113Z,36.83
2018-12-15T06:49:42.747Z,33.97
2018-12-15T06:51:45.334Z,34.77
2018-12-15T06:53:47.913Z,42.03
2018-12-15T06:55:50.500Z,60.50
2018-12-15T06:57:53.042Z,35.60
2018-12-15T06:59:55.597Z,33.27
2018-12-15T07:01:58.233Z,33.87
2018-12-15T07:04:00.758Z,35.70
2018-12-15T07:06:03.339Z,34.00
2018-12-15T07:08:06.033Z,36.80
2018-12-15T07:10:08.680Z,32.97
2018-12-15T07:12:11.235Z,35.63
2018-12-15T07:14:13.865Z,36.33
2018-12-15T07:16:16.391Z,40.87
2018-12-15T07:18:19.017Z,38.90
2018-12-15T07:20:21.533Z,38.53
2018-12-15T07:22:24.210Z,41.20
2018-12-15T07:24:27.027Z,38.10
2018-12-15T07:26:29.715Z,40.07
2018-12-15T07:28:32.274Z,39.37
2018-12-15T07:30:35.074Z,37.57
2018-12-15T07:32:37.589Z,39.57
2018-12-15T07:34:40.250Z,38.33
2018-12-15T07:36:42.872Z,39.23
2018-12-15T07:38:45.427Z,42.07
2018-12-15T07:40:47.970Z,44.63
2018-12-15T07:42:50.644Z,42.07
2018-12-15T07:44:53.177Z,39.10
2018-12-15T07:46:55.682Z,48.10
2018-12-15T07:48:58.289Z,40.37
2018-12-15T07:51:00.880Z,39.43
2018-12-15T07:53:03.433Z,40.63
2018-12-15T07:55:06.117Z,48.77
2018-12-15T07:57:08.632Z,39.40
2018-12-15T07:59:11.167Z,37.27
2018-12-15T08:01:13.830Z,37.53
2018-12-15T08:03:16.408Z,45.60
2018-12-15T08:05:19.175Z,37.80
2018-12-15T08:07:21.942Z,42.67
2018-12-15T08:09:24.534Z,38.50
2018-12-15T08:11:32.885Z,38.13
2018-12-15T08:13:35.443Z,43.63
2018-12-15T08:15:38.044Z,42.50
2018-12-15T08:17:40.638Z,38.97
2018-12-15T08:19:43.263Z,38.53
2018-12-15T08:21:45.829Z,37.83
2018-12-15T08:23:48.486Z,37.87
2018-12-15T08:25:51.029Z,39.87
2018-12-15T08:27:53.550Z,37.93
2018-12-15T08:29:56.145Z,39.80
2018-12-15T08:31:59.114Z,40.43
2018-12-15T08:34:01.617Z,35.70
2018-12-15T08:36:04.458Z,38.33
2018-12-15T08:38:07.139Z,39.73
2018-12-15T08:40:09.818Z,44.10
2018-12-15T08:42:12.361Z,44.87
2018-12-15T08:44:14.933Z,41.43
2018-12-15T08:46:17.771Z,44.27
2018-12-15T08:48:20.288Z,43.50
2018-12-15T08:50:22.852Z,51.93
2018-12-15T08:52:25.499Z,54.57
2018-12-15T08:54:28.109Z,47.17
2018-12-15T08:56:30.801Z,47.90
2018-12-15T08:58:33.443Z,43.50
2018-12-15T09:00:35.947Z,39.40
2018-12-15T09:02:38.595Z,40.17
2018-12-15T09:04:41.124Z,42.03
2018-12-15T09:06:43.666Z,40.50
2018-12-15T09:08:46.182Z,43.50
2018-12-15T09:10:48.793Z,40.03
2018-12-15T09:12:51.598Z,38.30
2018-12-15T09:14:54.311Z,47.67
2018-12-15T09:16:56.875Z,40.33
2018-12-15T09:18:59.534Z,42.07
2018-12-15T09:21:02.141Z,40.93
2018-12-15T09:23:04.685Z,36.40
2018-12-15T09:25:07.297Z,40.53
2018-12-15T09:27:09.822Z,41.27
2018-12-15T09:29:12.406Z,38.73
2018-12-15T09:31:15.032Z,42.63
2018-12-15T09:33:17.582Z,38.83
2018-12-15T09:35:20.243Z,40.57
2018-12-15T09:37:22.745Z,38.87
2018-12-15T09:39:25.419Z,46.10
2018-12-15T09:41:28.073Z,44.10
2018-12-15T09:43:31.118Z,42.30
2018-12-15T09:45:34.001Z,41.57
2018-12-15T09:47:36.545Z,49.63
2018-12-15T09:49:39.188Z,41.60
2018-12-15T09:51:41.781Z,44.60
2018-12-15T09:53:44.394Z,40.40
2018-12-15T09:55:47.079Z,42.83
2018-12-15T09:57:49.607Z,39.77
2018-12-15T09:59:52.206Z,38.03
2018-12-15T10:01:54.717Z,39.30
2018-12-15T10:03:57.338Z,41.50
2018-12-15T10:06:00.149Z,37.67
2018-12-15T10:08:03.631Z,39.00
2018-12-15T10:10:06.742Z,42.90
2018-12-15T10:12:09.424Z,39.07
2018-12-15T10:14:11.953Z,38.83
2018-12-15T10:16:14.571Z,38.73
2018-12-15T10:18:17.080Z,37.87
2018-12-15T10:20:19.680Z,36.43
2018-12-15T10:27:22.753Z,34.23
2018-12-15T10:29:38.531Z,37.50
2018-12-15T10:31:47.150Z,38.37
2018-12-15T10:33:49.976Z,42.73
2018-12-15T10:35:53.029Z,46.37
2018-12-15T10:37:55.637Z,40.37
2018-12-15T10:39:58.309Z,39.30
2018-12-15T10:42:00.833Z,39.53
2018-12-15T10:44:03.537Z,38.73
2018-12-15T10:46:06.073Z,37.83
2018-12-15T10:48:08.631Z,41.50
2018-12-15T10:50:11.495Z,39.97
2018-12-15T10:52:14.138Z,39.57
2018-12-15T10:54:16.734Z,38.20
2018-12-15T10:56:19.349Z,37.63
2018-12-15T10:58:22.042Z,38.30
2018-12-15T11:00:26.563Z,37.87
2018-12-15T11:02:29.217Z,40.90
2018-12-15T11:04:32.793Z,39.73
2018-12-15T11:06:35.664Z,40.47
2018-12-15T11:08:38.191Z,43.40
2018-12-15T11:10:41.018Z,35.57
2018-12-15T11:12:43.721Z,37.43
2018-12-15T11:14:46.441Z,36.43
2018-12-15T11:16:49.218Z,37.43
2018-12-15T11:18:51.752Z,36.13
2018-12-15T11:20:54.305Z,38.13
2018-12-15T11:22:57.034Z,41.87
2018-12-15T11:24:59.546Z,42.73
2018-12-15T11:27:02.062Z,42.07
2018-12-15T11:29:04.654Z,39.43
2018-12-15T11:31:07.295Z,39.70
2018-12-15T11:33:09.923Z,39.70
2018-12-15T11:35:12.714Z,41.27
2018-12-15T11:37:15.240Z,40.13
2018-12-15T11:39:19.522Z,38.80
2018-12-15T11:41:22.081Z,44.87
2018-12-15T11:43:24.666Z,42.83
2018-12-15T11:45:27.200Z,42.50
2018-12-15T11:47:29.958Z,39.33
2018-12-15T11:49:32.479Z,39.47
2018-12-15T11:51:35.004Z,37.63
2018-12-15T11:53:37.577Z,37.93
2018-12-15T11:55:40.291Z,43.77
2018-12-15T11:57:42.815Z,97.50
2018-12-15T11:59:45.988Z,38.37
2018-12-15T12:01:48.602Z,41.00
2018-12-15T12:03:51.266Z,38.07
2018-12-15T12:05:53.785Z,55.13
2018-12-15T12:07:56.314Z,38.20
2018-12-15T12:09:58.871Z,40.47
2018-12-15T12:12:01.406Z,74.33
2018-12-15T12:14:04.019Z,68.90
2018-12-15T12:16:06.524Z,72.83
2018-12-15T12:18:09.075Z,42.23
2018-12-15T12:20:11.702Z,156.50
2018-12-15T12:22:14.322Z,136.10
2018-12-15T12:24:16.938Z,280.83
2018-12-15T12:26:19.528Z,155.27
2018-12-15T12:28:22.193Z,283.37
2018-12-15T12:30:24.741Z,63.33
2018-12-15T12:32:27.280Z,40.03
2018-12-15T12:34:29.877Z,39.37
2018-12-15T12:36:32.784Z,37.40
2018-12-15T12:38:35.286Z,35.00
2018-12-15T12:40:37.886Z,35.50
2018-12-15T12:42:40.423Z,36.23
2018-12-15T12:44:42.926Z,37.77
2018-12-15T12:46:45.518Z,37.53
2018-12-15T12:48:48.109Z,39.17
2018-12-15T12:50:50.856Z,45.23
2018-12-15T12:52:53.411Z,38.87
2018-12-15T12:54:56.048Z,35.07
2018-12-15T12:56:58.770Z,40.43
2018-12-15T12:59:01.313Z,37.53
2018-12-15T13:01:03.850Z,35.83
2018-12-15T13:03:06.759Z,40.53
2018-12-15T13:05:09.495Z,39.93
2018-12-15T13:07:12.156Z,37.33
2018-12-15T13:09:14.994Z,37.97
2018-12-15T13:11:17.699Z,36.57
2018-12-15T13:13:20.431Z,37.63
2018-12-15T13:15:23.140Z,36.47
2018-12-15T13:17:27.317Z,36.80
2018-12-15T13:19:30.219Z,36.20
2018-12-15T13:21:32.880Z,40.37
2018-12-15T13:23:35.667Z,34.03
2018-12-15T13:25:38.846Z,36.00
2018-12-15T13:27:41.599Z,37.63
2018-12-15T13:29:44.664Z,36.83
2018-12-15T13:31:47.231Z,39.07
2018-12-15T13:33:49.839Z,36.20
2018-12-15T13:35:52.589Z,38.43
2018-12-15T13:37:55.200Z,45.20
2018-12-15T13:40:00.000Z,36.73
2018-12-15T13:42:02.529Z,42.53
2018-12-15T13:46:19.141Z,35.43
2018-12-15T13:48:21.758Z,38.77
2018-12-15T13:50:24.329Z,36.67
2018-12-15T13:52:26.865Z,35.97
2018-12-15T13:54:29.449Z,38.27
2018-12-15T13:56:32.506Z,37.03
2018-12-15T13:58:35.105Z,39.63
2018-12-15T14:00:37.781Z,44.70
2018-12-15T14:02:40.309Z,48.23
2018-12-15T14:04:42.992Z,40.87
2018-12-15T14:06:45.516Z,66.10
2018-12-15T14:08:48.041Z,41.90
2018-12-15T14:10:50.685Z,34.80
2018-12-15T14:12:53.250Z,39.87
2018-12-15T14:14:55.838Z,36.63
2018-12-15T14:16:58.483Z,55.13
2018-12-15T14:19:01.040Z,80.63
2018-12-15T14:21:03.586Z,39.30
2018-12-15T14:23:06.142Z,44.37
2018-12-15T14:25:08.672Z,41.40
2018-12-15T14:27:11.265Z,44.60
2018-12-15T14:29:13.791Z,55.53
2018-12-15T14:31:16.387Z,39.07
2018-12-15T14:33:18.914Z,37.60
2018-12-15T14:35:21.517Z,36.70
2018-12-15T14:37:24.174Z,34.53
2018-12-15T14:39:26.693Z,38.13
2018-12-15T14:41:29.250Z,36.07
2018-12-15T14:43:31.810Z,36.97
2018-12-15T14:45:34.522Z,34.27
2018-12-15T14:47:37.116Z,35.27
2018-12-15T14:49:39.895Z,34.37
2018-12-15T14:51:42.437Z,31.80
2018-12-15T14:53:45.113Z,29.93
2018-12-15T14:55:47.835Z,31.70
2018-12-15T14:57:50.393Z,27.47
2018-12-15T14:59:52.997Z,30.10
2018-12-15T15:01:55.777Z,25.77
2018-12-15T15:03:58.610Z,33.37
2018-12-15T15:06:01.160Z,32.70
2018-12-15T15:08:03.756Z,25.63
2018-12-15T15:10:06.749Z,26.27
2018-12-15T15:12:09.308Z,30.47
2018-12-15T15:14:11.846Z,27.90
2018-12-15T15:16:14.443Z,31.40
2018-12-15T15:18:17.034Z,24.83
2018-12-15T15:20:21.213Z,26.87
2018-12-15T15:22:23.973Z,82.10
2018-12-15T15:24:26.575Z,72.00
2018-12-15T15:26:29.193Z,50.40
2018-12-15T15:28:31.733Z,28.60
2018-12-15T15:30:34.271Z,28.03
2018-12-15T15:32:36.831Z,26.83
2018-12-15T15:34:39.443Z,28.27
2018-12-15T15:36:42.184Z,26.20
2018-12-15T15:38:44.805Z,25.70
2018-12-15T15:40:47.418Z,28.43
2018-12-15T15:42:49.961Z,25.03
2018-12-15T15:44:52.729Z,26.93
2018-12-15T15:46:55.293Z,27.33
2018-12-15T15:48:57.946Z,27.93
2018-12-15T15:51:00.676Z,27.10
2018-12-15T15:53:03.303Z,26.80
2018-12-15T15:55:06.028Z,24.83
2018-12-15T15:57:08.586Z,28.90
2018-12-15T15:59:11.223Z,25.30
2018-12-15T16:01:13.734Z,30.73
2018-12-15T16:03:16.306Z,27.90
2018-12-15T16:05:18.848Z,26.40
2018-12-15T16:07:21.783Z,25.00
2018-12-15T16:09:24.320Z,26.40
2018-12-15T16:11:29.878Z,23.80
2018-12-15T16:13:32.505Z,25.57
2018-12-15T16:15:35.299Z,24.40
2018-12-15T16:17:37.979Z,28.37
2018-12-15T16:19:40.559Z,20.47
2018-12-15T16:21:43.280Z,23.37
2018-12-15T16:23:45.894Z,20.90
2018-12-15T16:25:48.467Z,26.20
2018-12-15T16:27:50.981Z,21.87
2018-12-15T16:29:53.539Z,22.43
2018-12-15T16:31:56.078Z,19.90
2018-12-15T16:33:58.779Z,21.60
2018-12-15T16:36:01.447Z,20.23
2018-12-15T16:38:04.057Z,19.27
2018-12-15T16:40:07.434Z,19.47
2018-12-15T16:42:10.209Z,19.97
2018-12-15T16:44:12.728Z,22.13
2018-12-15T16:46:15.321Z,24.93
2018-12-15T16:48:17.876Z,31.77
2018-12-15T16:50:20.444Z,47.87
2018-12-15T16:52:23.849Z,38.10
2018-12-15T16:54:26.406Z,31.57
2018-12-15T16:56:28.945Z,29.73
2018-12-15T16:58:31.486Z,23.90
2018-12-15T17:00:34.082Z,25.47
2018-12-15T17:02:36.601Z,23.90
2018-12-15T17:04:39.205Z,23.03
2018-12-15T17:06:41.867Z,23.63
2018-12-15T17:08:44.490Z,21.33
2018-12-15T17:10:47.285Z,20.83
2018-12-15T17:12:49.857Z,23.67
2018-12-15T17:14:52.470Z,22.83
2018-12-15T17:16:55.105Z,22.80
2018-12-15T17:18:57.613Z,21.97
2018-12-15T17:21:00.155Z,24.07
2018-12-15T17:23:02.741Z,24.63
2018-12-15T17:25:06.445Z,32.83
2018-12-15T17:27:09.073Z,28.07
2018-12-15T17:29:11.670Z,23.73
2018-12-15T17:31:14.281Z,24.13
2018-12-15T17:33:17.199Z,24.87
2018-12-15T17:35:19.712Z,24.57
2018-12-15T17:37:22.304Z,28.10
2018-12-15T17:39:25.093Z,29.57
2018-12-15T17:41:27.816Z,28.40
2018-12-15T17:43:30.382Z,26.77
2018-12-15T17:45:32.950Z,52.03
2018-12-15T17:47:35.546Z,29.80
2018-12-15T17:49:38.064Z,43.10
2018-12-15T17:51:40.819Z,39.80
2018-12-15T17:53:43.365Z,31.90
2018-12-15T17:55:45.930Z,37.97
2018-12-15T17:57:48.527Z,30.90
2018-12-15T17:59:51.109Z,26.93
2018-12-15T18:01:53.763Z,28.93
2018-12-15T18:03:56.299Z,29.40
2018-12-15T18:05:59.041Z,21.97
2018-12-15T18:08:01.635Z,21.73
2018-12-15T18:10:06.283Z,31.37
2018-12-15T18:12:08.811Z,25.03
2018-12-15T18:14:11.359Z,22.93
2018-12-15T18:16:14.049Z,23.40
2018-12-15T18:18:16.683Z,22.80
2018-12-15T18:20:19.243Z,23.30
2018-12-15T18:22:21.784Z,24.03
2018-12-15T18:24:24.319Z,22.37
2018-12-15T18:26:26.851Z,22.17
2018-12-15T18:28:29.568Z,24.53
2018-12-15T18:30:32.220Z,22.80
2018-12-15T18:32:34.842Z,25.20
2018-12-15T18:34:37.486Z,25.27
2018-12-15T18:36:40.058Z,24.50
2018-12-15T18:38:42.622Z,21.10
2018-12-15T18:40:45.364Z,24.13
2018-12-15T18:42:47.975Z,24.70
2018-12-15T18:44:50.699Z,22.00
2018-12-15T18:46:53.316Z,28.07
2018-12-15T18:48:55.956Z,27.57
2018-12-15T18:50:58.604Z,26.50
2018-12-15T18:53:01.157Z,29.63
2018-12-15T18:55:03.928Z,23.70
2018-12-15T18:57:06.508Z,26.83
2018-12-15T18:59:09.370Z,26.37
2018-12-15T19:01:12.080Z,26.43
2018-12-15T19:03:14.659Z,29.73
2018-12-15T19:05:17.225Z,31.83
2018-12-15T19:07:19.747Z,36.07
2018-12-15T19:09:22.290Z,44.30
2018-12-15T19:11:24.914Z,37.43
2018-12-15T19:13:27.436Z,31.63
2018-12-15T19:15:30.197Z,28.07
2018-12-15T19:17:32.856Z,32.97
2018-12-15T19:19:35.380Z,32.07
2018-12-15T19:21:38.165Z,31.10
2018-12-15T19:23:40.784Z,29.83
2018-12-15T19:25:43.477Z,30.67
2018-12-15T19:27:45.984Z,31.70
2018-12-15T19:29:48.525Z,28.77
2018-12-15T19:31:51.163Z,27.43
2018-12-15T19:33:53.773Z,27.60
2018-12-15T19:35:56.411Z,32.17
2018-12-15T19:37:59.163Z,28.57
2018-12-15T19:40:01.693Z,31.90
2018-12-15T19:42:04.455Z,30.67
2018-12-15T19:44:07.073Z,29.07
2018-12-15T19:46:10.095Z,30.03
2018-12-15T19:48:12.644Z,30.50
2018-12-15T19:50:15.234Z,27.40
2018-12-15T19:52:17.792Z,36.37
2018-12-15T19:54:20.348Z,34.50
2018-12-15T19:56:22.878Z,29.00
2018-12-15T19:58:25.428Z,27.33
2018-12-15T20:00:28.098Z,28.27
2018-12-15T20:02:30.708Z,26.13
2018-12-15T20:04:33.437Z,25.83
2018-12-15T20:06:36.023Z,28.93
2018-12-15T20:08:38.671Z,27.60
2018-12-15T20:10:41.335Z,29.77
2018-12-15T20:12:43.993Z,27.73
2018-12-15T20:14:46.602Z,31.50
2018-12-15T20:16:49.305Z,30.20
2018-12-15T20:18:52.192Z,31.33
2018-12-15T20:20:54.737Z,46.13
2018-12-15T20:22:57.300Z,33.70
2018-12-15T20:24:59.900Z,30.77
2018-12-15T20:27:02.574Z,28.27
2018-12-15T20:29:05.116Z,32.87
2018-12-15T20:31:07.687Z,31.40
2018-12-15T20:33:10.238Z,31.93
2018-12-15T20:35:12.804Z,26.63
2018-12-15T20:37:15.420Z,38.13
2018-12-15T20:39:18.293Z,37.67
2018-12-15T20:41:20.831Z,44.10
2018-12-15T20:43:23.414Z,42.20
2018-12-15T20:45:26.095Z,47.27
2018-12-15T20:47:28.728Z,32.53
2018-12-15T20:49:31.417Z,30.47
2018-12-15T20:51:34.079Z,28.33
2018-12-15T20:53:36.682Z,25.20
2018-12-15T20:55:39.354Z,29.50
2018-12-15T20:57:42.043Z,29.17
2018-12-15T20:59:44.741Z,27.27
2018-12-15T21:01:47.388Z,27.07
2018-12-15T21:03:50.065Z,30.83
2018-12-15T21:05:52.782Z,29.57
2018-12-15T21:07:55.368Z,30.93
2018-12-15T21:09:58.057Z,31.63
2018-12-15T21:12:00.598Z,29.23
2018-12-15T21:14:03.191Z,28.50
2018-12-15T21:16:05.755Z,32.93
2018-12-15T21:18:08.315Z,30.40
2018-12-15T21:20:11.102Z,30.90
2018-12-15T21:22:13.756Z,33.80
2018-12-15T21:24:16.412Z,30.83
2018-12-15T21:26:18.997Z,34.40
2018-12-15T21:28:21.619Z,34.60
2018-12-15T21:30:24.288Z,41.60
2018-12-15T21:32:26.881Z,35.63
2018-12-15T21:34:29.434Z,29.67
2018-12-15T21:36:32.344Z,27.27
2018-12-15T21:38:35.116Z,48.37
2018-12-15T21:40:37.666Z,32.80
2018-12-15T21:42:40.306Z,30.83
2018-12-15T21:44:43.149Z,31.60
2018-12-15T21:46:45.734Z,34.03
2018-12-15T21:48:48.273Z,96.17
2018-12-15T21:50:50.797Z,38.27
2018-12-15T21:52:53.511Z,29.23
2018-12-15T21:54:56.073Z,28.50
2018-12-15T21:56:58.617Z,28.20
2018-12-15T21:59:01.182Z,32.13
2018-12-15T22:01:03.891Z,28.43
2018-12-15T22:03:06.537Z,31.33
2018-12-15T22:05:09.178Z,30.23
2018-12-15T22:07:11.787Z,31.27
2018-12-15T22:09:14.314Z,30.97
2018-12-15T22:11:16.890Z,30.93
2018-12-15T22:13:19.466Z,28.40
2018-12-15T22:15:22.006Z,35.50
2018-12-15T22:17:24.607Z,31.03
2018-12-15T22:19:27.177Z,34.17
2018-12-15T22:21:29.836Z,30.77
2018-12-15T22:23:32.413Z,29.47
2018-12-15T22:25:35.104Z,30.40
2018-12-15T22:27:37.764Z,33.77
2018-12-15T22:29:40.463Z,32.73
2018-12-15T22:31:43.020Z,32.77
2018-12-15T22:33:45.554Z,29.93
2018-12-15T22:35:48.142Z,31.40
2018-12-15T22:37:50.744Z,31.30
2018-12-15T22:39:53.391Z,46.63
2018-12-15T22:41:55.954Z,40.53
2018-12-15T22:43:58.626Z,51.47
2018-12-15T22:46:01.303Z,49.07
2018-12-15T22:48:04.110Z,45.73
2018-12-15T22:50:06.807Z,36.27
2018-12-15T22:52:09.939Z,33.77
2018-12-15T22:54:12.742Z,36.47
2018-12-15T22:56:15.353Z,36.63
2018-12-15T22:58:18.040Z,33.17
2018-12-15T23:00:20.962Z,33.87
2018-12-15T23:02:23.481Z,60.27
2018-12-15T23:04:26.094Z,45.07
2018-12-15T23:06:28.641Z,34.73
2018-12-15T23:08:31.229Z,35.93
2018-12-15T23:10:33.925Z,38.27
2018-12-15T23:12:36.548Z,36.10
2018-12-15T23:14:39.126Z,39.57
2018-12-15T23:16:41.704Z,36.47
2018-12-15T23:18:44.245Z,36.20
2018-12-15T23:20:46.943Z,36.60
2018-12-15T23:22:49.557Z,35.47
2018-12-15T23:24:52.149Z,40.73
2018-12-15T23:26:54.945Z,37.23
2018-12-15T23:28:57.586Z,40.97
2018-12-15T23:31:00.164Z,38.03
2018-12-15T23:33:02.786Z,39.83
2018-12-15T23:35:05.937Z,40.40
2018-12-15T23:37:08.552Z,40.47
2018-12-15T23:39:11.113Z,39.07
2018-12-15T23:41:13.861Z,39.47
2018-12-15T23:43:16.553Z,38.97
2018-12-15T23:45:19.143Z,37.67
2018-12-15T23:47:21.821Z,39.20
2018-12-15T23:49:24.446Z,33.73
2018-12-15T23:51:27.086Z,34.83
2018-12-15T23:53:29.646Z,34.23
2018-12-15T23:55:32.172Z,33.93
2018-12-15T23:57:34.746Z,35.00
2018-12-15T23:59:37.315Z,35.40
